createdAt,value
2018-09-03T00:01:45.994Z,19.20
2018-09-03T00:04:14.502Z,19.20
2018-09-03T00:06:43.032Z,19.20
2018-09-03T00:09:12.093Z,19.10
2018-09-03T00:11:40.612Z,19.10
2018-09-03T00:14:09.166Z,19.10
2018-09-03T00:16:37.700Z,19.00
2018-09-03T00:19:06.274Z,19.00
2018-09-03T00:21:34.773Z,18.90
2018-09-03T00:24:03.324Z,18.80
2018-09-03T00:26:31.844Z,18.70
2018-09-03T00:29:00.508Z,18.50
2018-09-03T00:31:35.472Z,18.50
2018-09-03T00:34:09.322Z,18.30
2018-09-03T00:36:43.260Z,18.20
2018-09-03T00:39:17.050Z,18.00
2018-09-03T00:41:50.977Z,17.90
2018-09-03T00:44:24.741Z,17.80
2018-09-03T00:46:59.201Z,17.70
2018-09-03T00:49:27.812Z,17.70
2018-09-03T00:51:56.374Z,17.60
2018-09-03T00:54:24.959Z,17.60
2018-09-03T00:56:53.519Z,17.60
2018-09-03T00:59:22.051Z,17.60
2018-09-03T01:01:50.715Z,17.60
2018-09-03T01:04:19.210Z,17.60
2018-09-03T01:06:47.739Z,17.60
2018-09-03T01:09:16.270Z,17.60
2018-09-03T01:11:44.860Z,17.60
2018-09-03T01:14:13.400Z,17.70
2018-09-03T01:16:41.926Z,17.80
2018-09-03T01:19:10.451Z,17.90
2018-09-03T01:21:39.039Z,18.00
2018-09-03T01:24:07.919Z,18.00
2018-09-03T01:26:36.486Z,18.10
2018-09-03T01:29:05.015Z,18.10
2018-09-03T01:31:33.536Z,18.20
2018-09-03T01:34:02.116Z,18.20
2018-09-03T01:36:30.660Z,18.20
2018-09-03T01:38:59.221Z,18.30
2018-09-03T01:41:27.741Z,18.30
2018-09-03T01:43:56.287Z,18.30
2018-09-03T01:46:24.822Z,18.30
2018-09-03T01:48:53.387Z,18.30
2018-09-03T01:51:21.933Z,18.40
2018-09-03T01:53:50.543Z,18.40
2018-09-03T01:56:19.079Z,18.40
2018-09-03T01:58:47.631Z,18.40
2018-09-03T02:01:16.180Z,18.40
2018-09-03T02:03:44.789Z,18.40
2018-09-03T02:06:13.348Z,18.40
2018-09-03T02:08:41.868Z,18.40
2018-09-03T02:11:10.402Z,18.40
2018-09-03T02:13:39.041Z,18.40
2018-09-03T02:16:07.598Z,18.40
2018-09-03T02:18:36.170Z,18.40
2018-09-03T02:21:04.864Z,18.40
2018-09-03T02:23:33.454Z,18.40
2018-09-03T02:26:01.981Z,18.40
2018-09-03T02:28:30.488Z,18.30
2018-09-03T02:30:59.009Z,18.30
2018-09-03T02:33:27.600Z,18.30
2018-09-03T02:35:56.154Z,18.30
2018-09-03T02:38:24.680Z,18.30
2018-09-03T02:40:53.190Z,18.30
2018-09-03T02:43:21.786Z,18.30
2018-09-03T02:45:50.390Z,18.30
2018-09-03T02:48:18.949Z,18.30
2018-09-03T02:50:47.558Z,18.30
2018-09-03T02:53:16.114Z,18.30
2018-09-03T02:55:44.630Z,18.30
2018-09-03T02:58:13.232Z,18.30
2018-09-03T03:00:41.827Z,18.30
2018-09-03T03:03:10.390Z,18.40
2018-09-03T03:05:39.004Z,18.40
2018-09-03T03:08:07.703Z,18.40
2018-09-03T03:10:36.224Z,18.40
2018-09-03T03:13:04.800Z,18.40
2018-09-03T03:15:33.343Z,18.30
2018-09-03T03:18:01.873Z,18.30
2018-09-03T03:20:34.193Z,18.30
2018-09-03T03:23:02.736Z,18.20
2018-09-03T03:25:31.331Z,18.10
2018-09-03T03:27:59.910Z,18.10
2018-09-03T03:30:28.457Z,18.00
2018-09-03T03:32:56.996Z,18.00
2018-09-03T03:35:25.551Z,18.10
2018-09-03T03:37:54.190Z,18.00
2018-09-03T03:40:22.742Z,18.10
2018-09-03T03:42:51.311Z,18.00
2018-09-03T03:45:19.810Z,18.00
2018-09-03T03:47:48.330Z,18.00
2018-09-03T03:50:16.858Z,18.00
2018-09-03T03:52:45.461Z,18.00
2018-09-03T03:55:14.099Z,18.00
2018-09-03T03:57:42.577Z,17.90
2018-09-03T04:00:11.247Z,17.80
2018-09-03T04:02:39.797Z,17.70
2018-09-03T04:05:08.358Z,17.60
2018-09-03T04:07:36.919Z,17.60
2018-09-03T04:10:06.920Z,17.50
2018-09-03T04:12:35.466Z,17.40
2018-09-03T04:15:04.079Z,17.40
2018-09-03T04:17:32.642Z,17.40
2018-09-03T04:20:05.191Z,17.40
2018-09-03T04:22:34.381Z,17.40
2018-09-03T04:25:03.923Z,17.40
2018-09-03T04:27:32.500Z,17.40
2018-09-03T04:30:01.021Z,17.30
2018-09-03T04:32:29.571Z,17.30
2018-09-03T04:34:58.268Z,17.30
2018-09-03T04:37:26.852Z,17.30
2018-09-03T04:39:55.836Z,17.30
2018-09-03T04:42:24.424Z,17.40
2018-09-03T04:44:52.939Z,17.40
2018-09-03T04:47:21.449Z,17.50
2018-09-03T04:49:49.940Z,17.50
2018-09-03T04:52:18.520Z,17.60
2018-09-03T04:54:47.147Z,17.60
2018-09-03T04:57:15.614Z,17.70
2018-09-03T04:59:44.151Z,17.70
2018-09-03T05:02:12.691Z,17.70
2018-09-03T05:04:41.227Z,17.70
2018-09-03T05:07:09.781Z,17.70
2018-09-03T05:09:38.351Z,17.80
2018-09-03T05:12:07.208Z,17.80
2018-09-03T05:14:35.945Z,17.80
2018-09-03T05:17:07.878Z,17.80
2018-09-03T05:19:36.498Z,17.80
2018-09-03T05:22:05.273Z,17.70
2018-09-03T05:24:33.800Z,17.70
2018-09-03T05:27:02.425Z,17.80
2018-09-03T05:29:31.033Z,17.80
2018-09-03T05:31:59.584Z,17.90
2018-09-03T05:34:28.106Z,17.90
2018-09-03T05:36:56.636Z,18.00
2018-09-03T05:39:25.192Z,18.00
2018-09-03T05:41:53.765Z,18.10
2018-09-03T05:44:22.376Z,18.10
2018-09-03T05:46:50.844Z,18.20
2018-09-03T05:49:19.436Z,18.20
2018-09-03T05:51:47.945Z,18.30
2018-09-03T05:54:16.471Z,18.30
2018-09-03T05:56:45.026Z,18.40
2018-09-03T05:59:13.664Z,18.50
2018-09-03T06:01:42.166Z,18.50
2018-09-03T06:04:10.753Z,18.60
2018-09-03T06:06:39.265Z,18.60
2018-09-03T06:09:10.201Z,18.60
2018-09-03T06:11:38.773Z,18.70
2018-09-03T06:14:07.544Z,18.70
2018-09-03T06:16:36.091Z,18.70
2018-09-03T06:19:04.623Z,18.70
2018-09-03T06:21:33.182Z,18.70
2018-09-03T06:24:01.943Z,18.70
2018-09-03T06:26:30.495Z,18.70
2018-09-03T06:28:59.033Z,18.70
2018-09-03T06:31:27.650Z,18.70
2018-09-03T06:33:56.168Z,18.80
2018-09-03T06:36:24.739Z,18.80
2018-09-03T06:38:53.412Z,18.90
2018-09-03T06:41:21.931Z,18.90
2018-09-03T06:43:50.578Z,19.00
2018-09-03T06:46:19.480Z,19.20
2018-09-03T06:48:48.220Z,19.30
2018-09-03T06:51:16.871Z,19.30
2018-09-03T06:53:45.520Z,19.30
2018-09-03T06:56:14.024Z,19.30
2018-09-03T06:58:42.832Z,19.30
2018-09-03T07:01:11.735Z,19.20
2018-09-03T07:03:40.359Z,19.20
2018-09-03T07:06:08.896Z,19.20
2018-09-03T07:08:38.288Z,19.20
2018-09-03T07:11:07.490Z,19.20
2018-09-03T07:13:36.063Z,19.30
2018-09-03T07:16:04.646Z,19.30
2018-09-03T07:18:33.155Z,19.20
2018-09-03T07:21:01.690Z,19.20
2018-09-03T07:23:30.237Z,19.20
2018-09-03T07:25:58.767Z,19.10
2018-09-03T07:28:27.271Z,19.10
2018-09-03T07:30:55.963Z,19.00
2018-09-03T07:33:24.541Z,19.10
2018-09-03T07:35:53.084Z,19.10
2018-09-03T07:38:21.644Z,19.30
2018-09-03T07:40:50.204Z,19.30
2018-09-03T07:43:18.858Z,19.30
2018-09-03T07:45:47.388Z,19.30
2018-09-03T07:48:16.062Z,19.30
2018-09-03T07:50:44.823Z,19.40
2018-09-03T07:53:13.537Z,19.40
2018-09-03T07:55:42.182Z,19.50
2018-09-03T07:58:10.722Z,19.60
2018-09-03T08:00:39.249Z,19.80
2018-09-03T08:03:07.828Z,20.10
2018-09-03T08:05:36.335Z,20.50
2018-09-03T08:08:05.060Z,20.80
2018-09-03T08:10:33.657Z,21.10
2018-09-03T08:13:02.229Z,21.20
2018-09-03T08:15:30.776Z,21.20
2018-09-03T08:17:59.402Z,21.30
2018-09-03T08:20:27.966Z,21.40
2018-09-03T08:22:56.525Z,21.50
2018-09-03T08:25:25.106Z,21.70
2018-09-03T08:27:53.621Z,22.10
2018-09-03T08:30:22.171Z,22.40
2018-09-03T08:32:50.701Z,22.60
2018-09-03T08:35:19.189Z,22.80
2018-09-03T08:37:48.543Z,22.90
2018-09-03T08:40:17.130Z,22.90
2018-09-03T08:42:45.674Z,23.10
2018-09-03T08:45:14.215Z,23.30
2018-09-03T08:47:42.786Z,23.30
2018-09-03T08:50:11.428Z,23.30
2018-09-03T08:52:39.963Z,23.30
2018-09-03T08:55:08.551Z,23.30
2018-09-03T08:57:37.152Z,23.30
2018-09-03T09:00:06.102Z,23.40
2018-09-03T09:02:34.632Z,23.40
2018-09-03T09:05:03.452Z,23.60
2018-09-03T09:07:32.051Z,23.90
2018-09-03T09:10:00.653Z,24.00
2018-09-03T09:12:29.165Z,23.90
2018-09-03T09:14:57.722Z,23.70
2018-09-03T09:17:26.225Z,23.50
2018-09-03T09:19:54.867Z,23.40
2018-09-03T09:22:23.380Z,23.20
2018-09-03T09:24:51.984Z,23.20
2018-09-03T09:27:20.558Z,23.10
2018-09-03T09:29:49.101Z,23.00
2018-09-03T09:32:17.746Z,22.90
2018-09-03T09:34:46.485Z,22.80
2018-09-03T09:37:15.143Z,22.80
2018-09-03T09:39:44.166Z,22.70
2018-09-03T09:42:12.712Z,22.70
2018-09-03T09:44:41.261Z,22.70
2018-09-03T09:47:09.838Z,22.70
2018-09-03T09:49:38.414Z,22.70
2018-09-03T09:52:06.941Z,22.70
2018-09-03T09:54:35.466Z,22.70
2018-09-03T09:57:03.992Z,22.70
2018-09-03T09:59:32.510Z,22.80
2018-09-03T10:02:01.074Z,22.80
2018-09-03T10:04:29.609Z,22.90
2018-09-03T10:06:58.168Z,23.00
2018-09-03T10:09:26.717Z,23.20
2018-09-03T10:11:55.252Z,23.30
2018-09-03T10:14:23.994Z,23.40
2018-09-03T10:16:52.532Z,23.60
2018-09-03T10:19:21.157Z,23.80
2018-09-03T10:21:49.661Z,24.00
2018-09-03T10:24:18.180Z,24.20
2018-09-03T10:26:47.237Z,24.50
2018-09-03T10:29:15.806Z,24.60
2018-09-03T10:31:44.451Z,24.90
2018-09-03T10:34:12.986Z,25.10
2018-09-03T10:36:41.523Z,25.20
2018-09-03T10:39:10.060Z,25.30
2018-09-03T10:41:38.624Z,25.30
2018-09-03T10:44:07.502Z,25.40
2018-09-03T10:46:36.033Z,25.60
2018-09-03T10:49:11.126Z,26.00
2018-09-03T10:51:39.706Z,26.10
2018-09-03T10:54:08.218Z,26.30
2018-09-03T10:56:36.719Z,26.10
2018-09-03T10:59:05.287Z,26.20
2018-09-03T11:01:34.178Z,26.20
2018-09-03T11:04:02.730Z,26.20
2018-09-03T11:06:31.261Z,26.20
2018-09-03T11:08:59.852Z,26.30
2018-09-03T11:11:28.376Z,26.40
2018-09-03T11:13:56.935Z,26.60
2018-09-03T11:16:25.506Z,26.60
2018-09-03T11:18:54.143Z,26.60
2018-09-03T11:21:22.856Z,26.50
2018-09-03T11:23:51.341Z,26.40
2018-09-03T11:26:19.896Z,26.40
2018-09-03T11:28:48.458Z,26.40
2018-09-03T11:31:17.053Z,26.60
2018-09-03T11:33:45.649Z,26.80
2018-09-03T11:36:14.571Z,26.90
2018-09-03T11:38:43.100Z,27.00
2018-09-03T11:41:11.683Z,27.00
2018-09-03T11:43:40.248Z,27.00
2018-09-03T11:46:08.802Z,27.00
2018-09-03T11:48:37.390Z,27.10
2018-09-03T11:51:05.912Z,27.20
2018-09-03T11:53:34.580Z,27.30
2018-09-03T11:56:03.136Z,27.30
2018-09-03T11:58:31.659Z,27.30
2018-09-03T12:01:00.769Z,27.40
2018-09-03T12:03:29.331Z,27.50
2018-09-03T12:05:58.013Z,27.80
2018-09-03T12:08:26.565Z,28.20
2018-09-03T12:10:55.132Z,28.60
2018-09-03T12:13:23.699Z,28.90
2018-09-03T12:16:24.013Z,29.20
2018-09-03T12:18:54.208Z,29.50
2018-09-03T12:21:22.729Z,29.80
2018-09-03T12:23:51.265Z,29.80
2018-09-03T12:26:19.824Z,29.60
2018-09-03T12:28:48.462Z,29.50
2018-09-03T12:31:17.064Z,29.30
2018-09-03T12:33:45.646Z,29.20
2018-09-03T12:36:14.189Z,29.10
2018-09-03T12:38:42.751Z,29.10
2018-09-03T12:41:11.372Z,29.10
2018-09-03T12:43:39.980Z,29.20
2018-09-03T12:46:08.955Z,29.20
2018-09-03T12:48:37.536Z,29.20
2018-09-03T12:51:06.394Z,29.00
2018-09-03T12:53:35.129Z,28.80
2018-09-03T12:56:04.197Z,28.60
2018-09-03T12:58:32.798Z,28.30
2018-09-03T13:01:01.375Z,28.00
2018-09-03T13:03:29.924Z,27.80
2018-09-03T13:05:58.442Z,27.70
2018-09-03T13:08:26.995Z,27.50
2018-09-03T13:10:55.498Z,27.30
2018-09-03T13:13:24.111Z,27.10
2018-09-03T13:15:52.665Z,26.90
2018-09-03T13:18:21.213Z,26.70
2018-09-03T13:20:49.784Z,26.60
2018-09-03T13:23:18.368Z,26.50
2018-09-03T13:25:46.859Z,26.50
2018-09-03T13:28:15.373Z,26.50
2018-09-03T13:30:43.944Z,26.50
2018-09-03T13:33:12.427Z,26.50
2018-09-03T13:35:40.968Z,26.40
2018-09-03T13:38:09.580Z,26.40
2018-09-03T13:40:38.845Z,26.40
2018-09-03T13:43:07.381Z,26.30
2018-09-03T13:45:35.884Z,26.30
2018-09-03T13:48:04.457Z,26.40
2018-09-03T13:50:33.001Z,26.40
2018-09-03T13:53:01.519Z,26.40
2018-09-03T13:55:30.113Z,26.40
2018-09-03T13:57:58.695Z,26.30
2018-09-03T14:00:27.210Z,26.30
2018-09-03T14:02:55.761Z,26.30
2018-09-03T14:05:24.296Z,26.40
2018-09-03T14:07:52.786Z,26.50
2018-09-03T14:10:21.299Z,26.50
2018-09-03T14:12:49.826Z,26.60
2018-09-03T14:15:18.336Z,26.60
2018-09-03T14:17:46.903Z,26.60
2018-09-03T14:20:15.426Z,26.60
2018-09-03T14:22:44.674Z,26.80
2018-09-03T14:25:13.281Z,27.00
2018-09-03T14:27:41.813Z,27.30
2018-09-03T14:30:10.481Z,27.90
2018-09-03T14:32:39.004Z,29.00
2018-09-03T14:35:07.681Z,32.00
2018-09-03T14:37:36.213Z,33.00
2018-09-03T14:40:04.898Z,33.10
2018-09-03T14:42:33.568Z,33.30
2018-09-03T14:45:02.147Z,33.30
2018-09-03T14:47:30.687Z,32.90
2018-09-03T14:49:59.274Z,32.70
2018-09-03T14:52:27.898Z,32.30
2018-09-03T14:54:56.440Z,31.80
2018-09-03T14:57:24.977Z,31.30
2018-09-03T14:59:53.614Z,31.30
2018-09-03T15:02:22.234Z,31.00
2018-09-03T15:04:51.786Z,30.50
2018-09-03T15:07:21.944Z,29.70
2018-09-03T15:09:53.285Z,29.10
2018-09-03T15:12:21.839Z,28.60
2018-09-03T15:14:50.378Z,28.20
2018-09-03T15:17:18.887Z,27.80
2018-09-03T15:19:47.414Z,27.50
2018-09-03T15:22:15.982Z,27.20
2018-09-03T15:24:44.528Z,26.90
2018-09-03T15:27:13.064Z,26.60
2018-09-03T15:29:41.671Z,26.60
2018-09-03T15:32:10.234Z,26.60
2018-09-03T15:34:38.815Z,26.60
2018-09-03T15:37:07.362Z,26.80
2018-09-03T15:39:35.895Z,26.80
2018-09-03T15:42:04.456Z,26.90
2018-09-03T15:44:33.075Z,26.90
2018-09-03T15:47:01.795Z,27.00
2018-09-03T15:49:30.327Z,27.00
2018-09-03T15:51:58.893Z,27.10
2018-09-03T15:54:27.432Z,27.20
2018-09-03T15:56:55.992Z,27.30
2018-09-03T15:59:24.605Z,27.60
2018-09-03T16:01:53.193Z,27.80
2018-09-03T16:04:21.820Z,28.10
2018-09-03T16:06:50.380Z,28.60
2018-09-03T16:09:19.980Z,29.00
2018-09-03T16:11:48.600Z,30.50
2018-09-03T16:14:17.196Z,30.80
2018-09-03T16:16:45.728Z,30.40
2018-09-03T16:19:14.336Z,29.80
2018-09-03T16:21:42.946Z,29.30
2018-09-03T16:24:11.538Z,28.90
2018-09-03T16:26:40.098Z,28.50
2018-09-03T16:29:08.682Z,28.10
2018-09-03T16:31:37.216Z,27.70
2018-09-03T16:34:05.862Z,27.40
2018-09-03T16:36:34.415Z,27.20
2018-09-03T16:39:03.111Z,26.90
2018-09-03T16:41:31.654Z,26.60
2018-09-03T16:44:00.240Z,26.40
2018-09-03T16:46:28.816Z,26.10
2018-09-03T16:48:57.438Z,26.00
2018-09-03T16:51:25.908Z,25.90
2018-09-03T16:53:54.434Z,25.70
2018-09-03T16:56:23.010Z,25.70
2018-09-03T16:58:51.542Z,25.60
2018-09-03T17:01:20.312Z,25.50
2018-09-03T17:03:48.664Z,25.50
2018-09-03T17:06:17.245Z,25.50
2018-09-03T17:08:45.786Z,25.50
2018-09-03T17:11:14.375Z,25.60
2018-09-03T17:13:43.996Z,25.50
2018-09-03T17:16:12.628Z,25.50
2018-09-03T17:18:41.238Z,25.30
2018-09-03T17:21:09.779Z,25.20
2018-09-03T17:23:38.359Z,25.00
2018-09-03T17:26:06.971Z,24.90
2018-09-03T17:28:35.520Z,24.70
2018-09-03T17:31:04.189Z,24.50
2018-09-03T17:33:32.734Z,24.30
2018-09-03T17:36:01.325Z,24.20
2018-09-03T17:38:29.894Z,24.00
2018-09-03T17:40:58.447Z,23.80
2018-09-03T17:43:27.008Z,23.60
2018-09-03T17:45:55.540Z,23.40
2018-09-03T17:48:24.123Z,23.20
2018-09-03T17:50:52.858Z,23.00
2018-09-03T17:53:27.270Z,22.90
2018-09-03T17:55:55.921Z,22.70
2018-09-03T17:58:24.536Z,22.60
2018-09-03T18:00:53.267Z,22.40
2018-09-03T18:03:21.890Z,22.30
2018-09-03T18:05:50.574Z,22.20
2018-09-03T18:08:19.150Z,22.10
2018-09-03T18:10:47.666Z,22.00
2018-09-03T18:13:16.234Z,21.90
2018-09-03T18:15:44.805Z,21.90
2018-09-03T18:18:13.352Z,21.80
2018-09-03T18:20:41.891Z,21.80
2018-09-03T18:23:10.467Z,21.70
2018-09-03T18:25:38.993Z,21.70
2018-09-03T18:28:07.649Z,21.70
2018-09-03T18:30:36.202Z,21.60
2018-09-03T18:33:04.810Z,21.60
2018-09-03T18:35:33.390Z,21.70
2018-09-03T18:38:01.983Z,21.60
2018-09-03T18:40:30.587Z,21.60
2018-09-03T18:42:59.326Z,21.60
2018-09-03T18:45:27.993Z,21.70
2018-09-03T18:47:56.760Z,21.60
2018-09-03T18:50:25.333Z,21.60
2018-09-03T18:52:54.148Z,21.60
2018-09-03T18:55:22.679Z,21.60
2018-09-03T18:57:51.459Z,21.60
2018-09-03T19:00:20.134Z,21.60
2018-09-03T19:02:48.848Z,21.60
2018-09-03T19:05:17.461Z,21.60
2018-09-03T19:07:46.293Z,21.60
2018-09-03T19:10:14.826Z,21.60
2018-09-03T19:12:43.677Z,21.60
2018-09-03T19:15:12.371Z,21.60
2018-09-03T19:17:41.174Z,21.60
2018-09-03T19:20:10.067Z,21.60
2018-09-03T19:22:38.701Z,21.60
2018-09-03T19:25:07.236Z,21.50
2018-09-03T19:27:36.112Z,21.50
2018-09-03T19:30:04.999Z,21.50
2018-09-03T19:32:33.623Z,21.50
2018-09-03T19:35:02.200Z,21.50
2018-09-03T19:37:30.771Z,21.40
2018-09-03T19:39:59.469Z,21.40
2018-09-03T19:42:28.001Z,21.40
2018-09-03T19:44:56.641Z,21.40
2018-09-03T19:47:25.216Z,21.40
2018-09-03T19:49:53.740Z,21.40
2018-09-03T19:52:22.290Z,21.30
2018-09-03T19:54:50.864Z,21.30
2018-09-03T19:57:19.524Z,21.30
2018-09-03T19:59:48.125Z,21.20
2018-09-03T20:02:16.747Z,21.20
2018-09-03T20:04:45.332Z,21.20
2018-09-03T20:07:13.831Z,21.20
2018-09-03T20:09:42.354Z,21.20
2018-09-03T20:12:10.943Z,21.10
2018-09-03T20:14:39.575Z,21.10
2018-09-03T20:17:08.153Z,21.10
2018-09-03T20:19:36.706Z,21.10
2018-09-03T20:22:07.137Z,21.10
2018-09-03T20:24:35.749Z,21.10
2018-09-03T20:27:04.322Z,21.10
2018-09-03T20:29:32.863Z,21.10
2018-09-03T20:32:01.413Z,21.00
2018-09-03T20:34:30.068Z,21.00
2018-09-03T20:36:58.650Z,21.00
2018-09-03T20:39:27.155Z,21.00
2018-09-03T20:41:55.707Z,21.00
2018-09-03T20:44:24.330Z,21.00
2018-09-03T20:46:52.849Z,21.00
2018-09-03T20:49:21.406Z,20.90
2018-09-03T20:51:49.936Z,20.90
2018-09-03T20:54:18.482Z,20.90
2018-09-03T20:56:47.013Z,20.80
2018-09-03T20:59:15.545Z,20.80
2018-09-03T21:01:44.111Z,20.80
2018-09-03T21:04:12.712Z,20.80
2018-09-03T21:06:41.258Z,20.80
2018-09-03T21:09:09.811Z,20.80
2018-09-03T21:11:38.368Z,20.80
2018-09-03T21:14:07.472Z,20.80
2018-09-03T21:16:35.991Z,20.80
2018-09-03T21:19:04.612Z,20.70
2018-09-03T21:21:33.187Z,20.70
2018-09-03T21:24:01.853Z,20.70
2018-09-03T21:26:30.239Z,20.60
2018-09-03T21:28:58.762Z,20.60
2018-09-03T21:31:27.293Z,20.50
2018-09-03T21:33:55.820Z,20.50
2018-09-03T21:36:24.372Z,20.50
2018-09-03T21:38:52.935Z,20.50
2018-09-03T21:41:21.631Z,20.50
2018-09-03T21:43:50.252Z,20.50
2018-09-03T21:46:18.800Z,20.40
2018-09-03T21:48:47.369Z,20.40
2018-09-03T21:51:15.930Z,20.40
2018-09-03T21:53:44.482Z,20.40
2018-09-03T21:56:13.022Z,20.40
2018-09-03T21:58:41.610Z,20.40
2018-09-03T22:01:10.144Z,20.40
2018-09-03T22:03:38.673Z,20.40
2018-09-03T22:06:07.280Z,20.40
2018-09-03T22:08:35.897Z,20.30
2018-09-03T22:11:04.448Z,20.30
2018-09-03T22:13:32.975Z,20.20
2018-09-03T22:16:01.839Z,20.20
2018-09-03T22:18:30.448Z,20.10
2018-09-03T22:20:59.007Z,20.00
2018-09-03T22:23:27.588Z,19.90
2018-09-03T22:25:56.101Z,19.80
2018-09-03T22:28:24.652Z,19.70
2018-09-03T22:30:53.176Z,19.70
2018-09-03T22:33:21.745Z,19.60
2018-09-03T22:35:50.298Z,19.50
2018-09-03T22:38:18.897Z,19.50
2018-09-03T22:40:47.452Z,19.40
2018-09-03T22:43:16.945Z,19.40
2018-09-03T22:45:45.511Z,19.40
2018-09-03T22:48:14.144Z,19.40
2018-09-03T22:50:42.719Z,19.40
2018-09-03T22:53:11.290Z,19.40
2018-09-03T22:55:39.846Z,19.40
2018-09-03T22:58:08.437Z,19.40
2018-09-03T23:00:36.984Z,19.50
2018-09-03T23:03:05.624Z,19.50
2018-09-03T23:05:34.217Z,19.50
2018-09-03T23:08:02.725Z,19.50
2018-09-03T23:10:31.311Z,19.50
2018-09-03T23:12:59.869Z,19.60
2018-09-03T23:15:28.413Z,19.50
2018-09-03T23:17:57.027Z,19.50
2018-09-03T23:20:25.652Z,19.60
2018-09-03T23:22:54.185Z,19.60
2018-09-03T23:25:22.724Z,19.60
2018-09-03T23:27:51.253Z,19.60
2018-09-03T23:30:19.853Z,19.60
2018-09-03T23:32:48.405Z,19.60
2018-09-03T23:35:17.084Z,19.60
2018-09-03T23:37:45.647Z,19.60
2018-09-03T23:40:14.200Z,19.60
2018-09-03T23:42:42.768Z,19.60
2018-09-03T23:45:11.319Z,19.60
2018-09-03T23:47:39.930Z,19.60
2018-09-03T23:50:08.449Z,19.60
2018-09-03T23:52:36.997Z,19.60
2018-09-03T23:55:05.649Z,19.60
2018-09-03T23:57:34.258Z,19.60
